sim
Sign-in with your pilot id or email,
or register
Callsign
Passwort

Schedule Details

Flight Number: DLH2079
Departure: Hamburg Airport (EDDH) at 18:15
Arrival: Munich Airport (EDDM) at 19:30
Route: Lufthansa Passenger Schedule. Enter filed route here before submitting Pirep.

Weather Information
Getting current METAR information for EDDH 250620Z 15010KT 9999 SCT028 14/11 Q0995 BECMG 22010KT
Getting current METAR information for EDDM 250620Z 19007KT 9999 -RA FEW035 12/11 Q1000 TEMPO 28015G25KT RA

Schedule Frequency

Route Map